HTUR weather

Urambo Airport
Urambo, Tabora Region, Tanzania

Public forecast

Using degrees Celsius for public forecast. Weather courtesy of forecast.io.

Closest aviation weather report (METAR) to Urambo Airport

Closest report is Tabora Airport, 45.1 nm (83.4 km) E. Retrieved 2020/06/01 18:00 UTC (2 hours ago):

HTTB 011800Z 00000KT 9999 FEW020 21/15 Q1019 NOSIG

Closest aviation forecast (TAF) to Urambo Airport

Forecast is more than 12 hours old.

Closest forecast is Tabora Airport, 45.1 nm (83.4 km) E. Retrieved 2020/05/16 18:33 UTC (16 days ago):

TAF HTTB 161700Z 1618/1718 16010KT 9999 SCT020